Time;durP1;ratioP1;P1;durP2;ratioP2;P2;SDS_P1;SDS_P2;PMS_P1;PMS_P2;Temp;Humidity;BMP_temperature;BMP_pressure;BME280_temperature;BME280_humidity;BME280_pressure;Samples;Min_cycle;Max_cycle;Signal;HPM_P1;HPM_P2
2022/03/21 00:02:14;;;;;;;17.70;14.03;;;9.50;99.90;;;;;;5034402;28;20171;-70
2022/03/21 00:04:39;;;;;;;18.27;14.07;;;9.60;99.90;;;;;;5034797;28;20179;-69
2022/03/21 00:07:05;;;;;;;18.23;14.10;;;9.50;99.90;;;;;;5033387;28;20281;-70
2022/03/21 00:09:30;;;;;;;21.80;12.90;;;9.60;99.90;;;;;;5034132;28;20320;-69
2022/03/21 00:11:56;;;;;;;18.60;13.40;;;9.70;99.90;;;;;;5033335;28;20166;-69
2022/03/21 00:14:22;;;;;;;17.50;13.57;;;9.70;99.90;;;;;;5033840;28;20206;-70
2022/03/21 00:16:48;;;;;;;17.57;13.60;;;9.70;99.90;;;;;;5034309;28;20203;-70
2022/03/21 00:19:14;;;;;;;18.67;14.43;;;9.70;99.90;;;;;;5016001;28;20424;-69
2022/03/21 00:21:39;;;;;;;16.83;13.83;;;9.60;99.90;;;;;;5033189;28;20413;-69
2022/03/21 00:24:05;;;;;;;19.97;14.60;;;9.50;99.90;;;;;;5034189;28;20171;-70
2022/03/21 00:26:31;;;;;;;18.03;13.80;;;9.60;99.90;;;;;;5033889;28;20175;-69
2022/03/21 00:28:56;;;;;;;18.73;14.80;;;9.70;99.90;;;;;;5033477;28;20412;-68
2022/03/21 00:31:22;;;;;;;25.60;15.93;;;9.70;99.90;;;;;;5033429;28;20202;-70
2022/03/21 00:33:47;;;;;;;18.20;14.27;;;9.80;99.90;;;;;;5033239;28;20171;-69
2022/03/21 00:36:13;;;;;;;19.63;15.00;;;9.80;99.90;;;;;;5033407;28;20213;-70
2022/03/21 00:38:41;;;;;;;18.23;13.57;;;9.90;99.90;;;;;;5033097;28;20243;-69
2022/03/21 00:41:07;;;;;;;20.77;13.50;;;9.90;99.90;;;;;;5015490;28;20175;-69
2022/03/21 00:43:33;;;;;;;21.20;14.70;;;9.90;99.90;;;;;;5033345;28;20417;-70
2022/03/21 00:45:59;;;;;;;18.93;14.00;;;9.90;99.90;;;;;;5033791;28;20175;-69
2022/03/21 00:48:26;;;;;;;18.03;13.63;;;10.00;99.90;;;;;;5034505;28;20445;-70
2022/03/21 00:50:55;;;;;;;18.83;13.80;;;9.90;99.90;;;;;;5033591;28;20172;-69
2022/03/21 00:53:21;;;;;;;22.37;16.47;;;9.90;99.90;;;;;;5015754;28;20433;-71
2022/03/21 00:55:48;;;;;;;19.93;13.83;;;9.90;99.90;;;;;;5035237;28;20465;-69
2022/03/21 00:58:14;;;;;;;18.50;14.93;;;9.90;99.90;;;;;;5019906;28;20445;-68
2022/03/21 01:00:39;;;;;;;26.77;18.13;;;10.00;99.90;;;;;;5037090;28;20405;-68
2022/03/21 01:03:05;;;;;;;24.47;15.70;;;9.90;99.90;;;;;;5036772;28;20415;-69
2022/03/21 01:05:31;;;;;;;30.60;17.93;;;9.80;99.90;;;;;;5037383;28;20175;-69
2022/03/21 01:07:58;;;;;;;26.30;17.10;;;9.90;99.90;;;;;;5037715;28;20248;-69
2022/03/21 01:10:26;;;;;;;26.30;18.37;;;9.80;99.90;;;;;;5037228;28;20425;-69
2022/03/21 01:12:52;;;;;;;25.30;16.93;;;9.80;99.90;;;;;;5036461;28;20558;-69
2022/03/21 01:15:21;;;;;;;23.67;16.90;;;9.70;99.90;;;;;;5038320;28;20405;-69
2022/03/21 01:17:47;;;;;;;25.33;15.13;;;9.80;99.90;;;;;;5036751;28;20449;-69
2022/03/21 01:20:16;;;;;;;20.57;16.97;;;9.80;99.90;;;;;;5036837;28;20507;-70
2022/03/21 01:22:41;;;;;;;21.07;15.00;;;9.70;99.90;;;;;;5036899;28;20409;-69
2022/03/21 01:25:07;;;;;;;22.77;15.93;;;9.80;99.90;;;;;;5037120;28;20477;-69
2022/03/21 01:27:34;;;;;;;25.77;17.40;;;9.80;99.90;;;;;;5037141;28;20195;-70
2022/03/21 01:30:04;;;;;;;21.17;15.67;;;9.80;99.90;;;;;;5036708;28;20418;-69
2022/03/21 01:32:29;;;;;;;22.40;15.87;;;9.80;99.90;;;;;;5039359;28;20465;-69
2022/03/21 01:34:55;;;;;;;21.53;16.23;;;9.90;99.90;;;;;;5042316;28;20433;-71
2022/03/21 01:37:21;;;;;;;20.53;14.50;;;9.90;99.90;;;;;;5037191;28;20571;-69
2022/03/21 01:39:46;;;;;;;21.73;15.47;;;9.90;99.90;;;;;;5037401;28;20694;-70
2022/03/21 01:42:12;;;;;;;36.10;17.37;;;9.90;99.90;;;;;;5036743;28;20432;-70
2022/03/21 01:44:37;;;;;;;26.80;17.00;;;9.90;99.90;;;;;;5037164;28;20185;-69
2022/03/21 01:47:03;;;;;;;23.33;16.37;;;9.90;99.90;;;;;;5036507;28;20207;-69
2022/03/21 01:49:29;;;;;;;20.67;14.60;;;9.90;99.90;;;;;;5036717;28;20175;-69
2022/03/21 01:51:55;;;;;;;19.80;15.83;;;9.90;99.90;;;;;;5036472;28;21155;-70
2022/03/21 01:57:05;;;;;;;27.80;15.77;;;9.90;99.90;;;;;;5036391;28;20729;-71
2022/03/21 01:59:33;;;;;;;20.20;15.97;;;9.80;99.90;;;;;;5036206;28;20418;-69
2022/03/21 02:01:59;;;;;;;21.53;15.30;;;9.70;99.90;;;;;;5036105;28;20424;-69
2022/03/21 02:04:25;;;;;;;22.60;15.70;;;9.60;99.90;;;;;;5035912;28;20410;-69
2022/03/21 02:06:53;;;;;;;22.40;16.20;;;9.50;99.90;;;;;;5036300;28;20202;-69
2022/03/21 02:09:19;;;;;;;17.63;15.47;;;9.50;99.90;;;;;;5035789;28;20178;-69
2022/03/21 02:11:45;;;;;;;23.50;15.63;;;9.50;99.90;;;;;;5035600;28;20431;-69
2022/03/21 02:14:11;;;;;;;23.10;16.87;;;9.40;99.90;;;;;;5018239;28;20771;-69
2022/03/21 02:16:39;;;;;;;21.70;15.37;;;9.30;99.90;;;;;;5035879;28;20206;-69
2022/03/21 02:19:13;;;;;;;26.97;16.77;;;9.40;99.90;;;;;;5036209;28;20442;-68
2022/03/21 02:22:20;;;;;;;19.00;15.00;;;9.40;99.90;;;;;;5035981;28;20410;-67
2022/03/21 02:25:14;;;;;;;17.53;14.80;;;9.40;99.90;;;;;;5009000;28;20433;-69
2022/03/21 02:27:40;;;;;;;20.87;14.80;;;9.30;99.90;;;;;;5035908;28;20428;-70
2022/03/21 02:30:07;;;;;;;16.87;14.10;;;9.20;99.90;;;;;;5036152;28;20416;-69
2022/03/21 02:32:32;;;;;;;23.23;15.90;;;9.10;99.90;;;;;;5035714;28;20414;-69
2022/03/21 02:34:58;;;;;;;21.37;14.77;;;9.10;99.90;;;;;;5036023;28;20421;-68
2022/03/21 02:37:25;;;;;;;18.57;14.40;;;9.10;99.90;;;;;;5035816;28;20211;-69
2022/03/21 02:39:54;;;;;;;19.40;13.70;;;9.10;99.90;;;;;;5035681;28;20420;-69
2022/03/21 02:42:19;;;;;;;22.70;15.03;;;9.00;99.90;;;;;;5035762;28;20401;-69
2022/03/21 02:44:45;;;;;;;17.97;13.97;;;8.90;99.90;;;;;;5035648;28;20501;-68
2022/03/21 02:47:10;;;;;;;17.40;13.40;;;8.90;99.90;;;;;;5036066;28;20262;-69
2022/03/21 02:49:36;;;;;;;20.57;14.33;;;8.90;99.90;;;;;;5035674;28;20252;-69
2022/03/21 02:52:04;;;;;;;24.07;15.20;;;9.00;99.90;;;;;;5035470;28;20543;-69
2022/03/21 02:54:31;;;;;;;19.83;14.60;;;9.00;99.90;;;;;;5035977;28;20497;-70
2022/03/21 02:56:57;;;;;;;20.27;14.07;;;9.00;99.90;;;;;;5035702;28;20551;-70
2022/03/21 02:59:23;;;;;;;19.40;13.70;;;9.10;99.90;;;;;;5035460;28;20780;-69
2022/03/21 03:01:53;;;;;;;20.63;14.03;;;9.20;99.90;;;;;;5035240;28;20400;-69
2022/03/21 03:04:23;;;;;;;18.70;14.70;;;9.20;99.90;;;;;;5035484;28;20193;-69
2022/03/21 03:06:49;;;;;;;20.97;14.20;;;9.10;99.90;;;;;;5035826;28;20434;-69
2022/03/21 03:09:14;;;;;;;16.93;13.50;;;9.00;99.90;;;;;;5035142;28;20760;-69
2022/03/21 03:11:40;;;;;;;21.73;13.53;;;8.90;99.90;;;;;;5035074;28;20166;-69
2022/03/21 03:14:06;;;;;;;18.63;12.83;;;8.80;99.90;;;;;;5035603;28;20175;-71
2022/03/21 03:16:32;;;;;;;20.00;13.93;;;8.70;99.90;;;;;;5035378;28;20241;-70
2022/03/21 03:18:58;;;;;;;19.33;14.43;;;8.60;99.90;;;;;;5034514;28;20441;-70
2022/03/21 03:21:25;;;;;;;23.63;14.40;;;8.50;99.90;;;;;;5035041;28;20230;-70
2022/03/21 03:23:52;;;;;;;19.40;14.20;;;8.50;99.90;;;;;;5034748;28;20167;-69
2022/03/21 03:26:17;;;;;;;18.60;13.50;;;8.40;99.90;;;;;;5018076;28;20868;-70
2022/03/21 03:28:47;;;;;;;20.50;14.90;;;8.40;99.90;;;;;;5035024;28;20428;-70
2022/03/21 03:31:17;;;;;;;23.70;16.90;;;8.30;99.90;;;;;;5035924;28;20197;-69
2022/03/21 03:33:45;;;;;;;23.70;16.80;;;8.30;99.90;;;;;;5035569;28;20407;-69
2022/03/21 03:36:11;;;;;;;23.20;16.73;;;8.10;99.90;;;;;;5017215;28;20514;-69
2022/03/21 03:38:37;;;;;;;24.37;16.80;;;8.10;99.90;;;;;;5035197;28;20482;-69
2022/03/21 03:41:02;;;;;;;27.63;17.07;;;8.10;99.90;;;;;;5035333;28;20744;-70
2022/03/21 03:43:29;;;;;;;23.90;16.93;;;8.00;99.90;;;;;;5035754;28;20429;-70
2022/03/21 03:45:57;;;;;;;28.30;17.70;;;7.90;99.90;;;;;;5018289;28;20234;-70
2022/03/21 03:48:22;;;;;;;19.00;14.87;;;8.00;99.90;;;;;;5035782;28;20532;-70
2022/03/21 03:50:48;;;;;;;21.10;14.70;;;7.90;99.90;;;;;;5035243;28;20834;-69
2022/03/21 03:53:15;;;;;;;21.40;15.17;;;7.90;99.90;;;;;;5034620;28;20175;-69
2022/03/21 03:55:40;;;;;;;17.93;13.90;;;7.90;99.90;;;;;;5035621;28;20707;-69
2022/03/21 03:58:06;;;;;;;21.00;14.90;;;7.90;99.90;;;;;;5035859;28;20426;-70
2022/03/21 04:00:31;;;;;;;23.60;15.30;;;7.80;99.90;;;;;;5035324;28;20255;-68
2022/03/21 04:05:41;;;;;;;23.17;15.23;;;7.80;99.90;;;;;;5035674;28;20213;-69
2022/03/21 04:08:07;;;;;;;25.13;14.63;;;7.90;99.90;;;;;;5034781;28;20445;-68
2022/03/21 04:10:33;;;;;;;19.77;14.97;;;8.00;99.90;;;;;;5035616;28;20176;-68
2022/03/21 04:12:58;;;;;;;21.40;16.20;;;8.10;99.90;;;;;;5035546;28;20175;-69
2022/03/21 04:15:24;;;;;;;23.37;16.60;;;8.10;99.90;;;;;;5035134;28;20935;-69
2022/03/21 04:17:50;;;;;;;23.73;16.80;;;8.10;99.90;;;;;;5017516;28;20350;-68
2022/03/21 04:20:16;;;;;;;25.87;16.00;;;8.10;99.90;;;;;;5035591;28;20248;-71
2022/03/21 04:22:41;;;;;;;19.67;15.70;;;8.10;99.90;;;;;;5034887;28;20406;-68
2022/03/21 04:25:10;;;;;;;22.67;15.47;;;8.10;99.90;;;;;;5061526;22;20227;-68
2022/03/21 04:27:37;;;;;;;20.27;14.43;;;8.00;99.90;;;;;;5033920;28;20712;-69
2022/03/21 04:30:04;;;;;;;24.27;16.57;;;8.00;99.90;;;;;;5052060;28;20407;-69
2022/03/21 04:32:30;;;;;;;23.13;15.03;;;8.00;99.90;;;;;;5055158;28;20427;-69
2022/03/21 04:34:55;;;;;;;20.43;15.93;;;8.00;99.90;;;;;;5056678;28;20427;-69
2022/03/21 04:37:21;;;;;;;17.80;14.40;;;8.00;99.90;;;;;;5054236;28;20209;-69
2022/03/21 04:39:46;;;;;;;21.17;15.77;;;8.10;99.90;;;;;;5055344;28;20228;-70
2022/03/21 04:42:12;;;;;;;19.20;15.00;;;8.10;99.90;;;;;;5036936;28;20177;-70
2022/03/21 04:44:39;;;;;;;22.20;16.07;;;8.10;99.90;;;;;;5055022;28;20661;-69
2022/03/21 04:47:06;;;;;;;22.07;15.77;;;8.10;99.90;;;;;;5037115;28;20180;-69
2022/03/21 04:49:31;;;;;;;22.00;16.33;;;8.10;99.90;;;;;;5055188;28;20426;-70
2022/03/21 04:51:57;;;;;;;21.40;15.67;;;8.10;99.90;;;;;;5054716;28;20407;-69
2022/03/21 04:54:22;;;;;;;23.47;16.53;;;8.10;99.90;;;;;;5054996;28;20258;-70
2022/03/21 04:56:48;;;;;;;21.13;16.73;;;8.20;99.90;;;;;;5054700;28;20194;-69
2022/03/21 04:59:13;;;;;;;23.60;17.43;;;8.20;99.90;;;;;;5054912;28;20594;-69
2022/03/21 05:01:39;;;;;;;21.47;15.60;;;8.10;99.90;;;;;;5054482;28;20680;-69
2022/03/21 05:04:04;;;;;;;25.37;16.87;;;8.10;99.90;;;;;;5054905;28;20182;-69
2022/03/21 05:06:30;;;;;;;22.40;16.80;;;8.00;99.90;;;;;;5054608;28;20201;-70
2022/03/21 05:08:55;;;;;;;23.03;17.40;;;8.00;99.90;;;;;;5054678;28;20639;-70
2022/03/21 05:11:21;;;;;;;23.10;16.50;;;8.00;99.90;;;;;;5054606;28;20176;-70
2022/03/21 05:13:47;;;;;;;23.07;18.83;;;7.80;99.90;;;;;;5054150;28;20176;-70
2022/03/21 05:16:13;;;;;;;24.60;17.93;;;7.80;99.90;;;;;;5054198;28;20623;-70
2022/03/21 05:18:39;;;;;;;19.07;16.03;;;7.80;99.90;;;;;;5054796;28;20413;-69
2022/03/21 05:21:05;;;;;;;23.90;17.90;;;7.80;99.90;;;;;;5054566;28;20404;-69
2022/03/21 05:31:44;;;;;;;24.70;17.17;;;7.50;99.90;;;;;;5054030;28;20505;-69
2022/03/21 05:36:54;;;;;;;22.40;16.50;;;7.40;99.90;;;;;;5054200;28;20287;-70
2022/03/21 05:39:20;;;;;;;21.30;16.70;;;7.50;99.90;;;;;;5054103;28;20920;-69
2022/03/21 05:41:47;;;;;;;23.57;17.53;;;7.50;99.90;;;;;;5053211;28;20174;-70
2022/03/21 05:44:12;;;;;;;28.23;18.27;;;7.40;99.90;;;;;;5053776;28;20410;-70
2022/03/21 05:46:38;;;;;;;27.90;19.20;;;7.30;99.90;;;;;;5053891;28;20706;-70
2022/03/21 05:49:04;;;;;;;24.33;17.50;;;7.30;99.90;;;;;;5053941;28;20213;-69
2022/03/21 05:51:32;;;;;;;25.00;19.20;;;7.10;99.90;;;;;;5053780;28;20572;-70
2022/03/21 05:54:01;;;;;;;27.37;19.13;;;7.10;99.90;;;;;;5053578;28;20829;-69
2022/03/21 05:56:27;;;;;;;24.00;18.43;;;7.10;99.90;;;;;;5053612;28;20453;-70
2022/03/21 05:58:53;;;;;;;23.40;17.60;;;7.10;99.90;;;;;;5053761;28;20421;-70
2022/03/21 06:01:24;;;;;;;26.00;18.90;;;7.10;99.90;;;;;;5053572;28;20406;-70
2022/03/21 06:03:54;;;;;;;22.17;17.00;;;7.20;99.90;;;;;;5053789;28;20416;-70
2022/03/21 06:06:21;;;;;;;21.07;16.50;;;7.20;99.90;;;;;;5035601;28;20457;-69
2022/03/21 06:08:48;;;;;;;22.73;15.90;;;7.20;99.90;;;;;;5053746;28;20405;-69
2022/03/21 06:11:14;;;;;;;26.33;16.83;;;7.30;99.90;;;;;;5053768;28;20409;-69
2022/03/21 06:13:42;;;;;;;19.30;16.30;;;7.30;99.90;;;;;;5053248;28;20504;-69
2022/03/21 06:16:08;;;;;;;22.20;16.80;;;7.40;99.90;;;;;;5053306;28;20202;-69
2022/03/21 06:18:35;;;;;;;20.00;16.13;;;7.40;99.90;;;;;;5053348;28;20495;-71
2022/03/21 06:21:02;;;;;;;22.80;15.67;;;7.50;99.90;;;;;;5053378;28;20505;-69
2022/03/21 06:23:28;;;;;;;22.13;16.70;;;7.50;99.90;;;;;;5053029;28;20419;-70
2022/03/21 06:25:54;;;;;;;25.03;16.10;;;7.60;99.90;;;;;;5053362;28;20449;-71
2022/03/21 06:28:21;;;;;;;22.23;17.33;;;7.60;99.90;;;;;;5053182;28;20813;-70
2022/03/21 06:30:50;;;;;;;22.10;16.87;;;7.70;99.90;;;;;;5053220;28;20446;-70
2022/03/21 06:33:16;;;;;;;21.87;16.60;;;7.70;99.90;;;;;;5052874;28;20458;-72
2022/03/21 06:35:41;;;;;;;23.40;17.30;;;7.70;99.90;;;;;;5052943;28;20460;-69
2022/03/21 06:38:07;;;;;;;21.13;16.20;;;7.80;99.90;;;;;;5052867;28;20481;-69
2022/03/21 06:40:33;;;;;;;20.20;16.00;;;7.80;99.90;;;;;;5052889;28;20286;-69
2022/03/21 06:42:59;;;;;;;20.60;16.50;;;7.80;99.90;;;;;;5052225;28;20257;-69
2022/03/21 06:45:24;;;;;;;23.97;18.07;;;7.80;99.90;;;;;;5052466;28;20579;-70
2022/03/21 06:47:50;;;;;;;26.20;19.10;;;7.90;99.90;;;;;;5052849;28;20170;-70
2022/03/21 06:50:15;;;;;;;26.73;21.10;;;8.00;99.90;;;;;;5052951;28;20182;-69
2022/03/21 06:52:43;;;;;;;24.23;18.50;;;8.00;99.90;;;;;;5051546;28;20199;-69
2022/03/21 06:55:10;;;;;;;25.60;19.27;;;8.10;99.90;;;;;;5052539;28;20192;-71
2022/03/21 06:57:35;;;;;;;21.93;17.50;;;8.20;99.90;;;;;;5052176;28;20462;-70
2022/03/21 07:00:02;;;;;;;19.73;16.77;;;8.20;99.90;;;;;;5052426;28;20857;-69
2022/03/21 07:02:28;;;;;;;21.77;17.00;;;8.30;99.90;;;;;;5034192;28;20205;-70
2022/03/21 07:04:54;;;;;;;20.70;16.27;;;8.30;99.90;;;;;;5052488;28;20454;-70
2022/03/21 07:07:20;;;;;;;21.87;15.50;;;8.40;99.90;;;;;;5043528;28;20467;-69
2022/03/21 07:09:45;;;;;;;19.27;16.60;;;8.50;99.90;;;;;;5061889;28;20196;-70
2022/03/21 07:12:11;;;;;;;22.20;15.87;;;8.50;99.90;;;;;;5034361;28;20217;-69
2022/03/21 07:14:36;;;;;;;27.70;16.77;;;8.70;99.90;;;;;;5063204;28;20257;-69
2022/03/21 07:17:02;;;;;;;17.87;14.40;;;8.70;99.90;;;;;;5054545;28;20706;-69
2022/03/21 07:19:28;;;;;;;24.90;15.03;;;8.70;99.00;;;;;;5056325;28;20202;-70
2022/03/21 07:21:53;;;;;;;19.53;14.27;;;8.80;97.50;;;;;;5063885;28;20569;-70
2022/03/21 07:24:19;;;;;;;19.60;15.60;;;8.90;96.60;;;;;;5066365;28;20521;-68
2022/03/21 07:26:45;;;;;;;20.93;15.80;;;9.10;96.00;;;;;;5050309;28;20212;-69
2022/03/21 07:29:12;;;;;;;22.00;15.70;;;9.10;96.70;;;;;;5050676;28;20198;-69
2022/03/21 07:31:38;;;;;;;19.47;15.90;;;9.30;96.60;;;;;;5049351;28;20267;-69
2022/03/21 07:34:04;;;;;;;20.70;16.27;;;9.30;96.80;;;;;;5050559;28;20447;-70
2022/03/21 07:36:30;;;;;;;19.17;15.30;;;9.40;96.50;;;;;;5049003;28;20483;-69
2022/03/21 07:38:57;;;;;;;20.40;15.07;;;9.40;95.90;;;;;;5050526;28;20200;-69
2022/03/21 07:41:26;;;;;;;22.97;16.80;;;9.50;95.20;;;;;;5036309;28;20220;-71
2022/03/21 07:43:57;;;;;;;19.83;14.90;;;9.60;95.40;;;;;;5070748;28;20432;-68
2022/03/21 07:49:07;;;;;;;20.70;15.20;;;9.70;95.10;;;;;;5070940;28;20435;-70
2022/03/21 07:51:32;;;;;;;20.10;14.60;;;9.90;94.40;;;;;;5058603;28;20441;-69
2022/03/21 07:53:58;;;;;;;17.77;14.57;;;9.90;94.40;;;;;;5050401;28;20674;-70
2022/03/21 07:56:23;;;;;;;20.30;15.73;;;10.10;93.80;;;;;;5050335;28;20208;-71
2022/03/21 07:58:49;;;;;;;20.07;15.90;;;10.20;94.70;;;;;;5050494;28;20703;-72
2022/03/21 08:01:15;;;;;;;20.50;15.40;;;10.20;94.00;;;;;;5050955;28;20261;-71
2022/03/21 08:03:41;;;;;;;18.87;14.20;;;10.30;93.30;;;;;;5032405;28;20555;-70
2022/03/21 08:06:10;;;;;;;17.33;14.70;;;10.40;92.60;;;;;;5050499;28;20439;-70
2022/03/21 08:08:37;;;;;;;18.80;13.77;;;10.40;91.70;;;;;;5050061;28;20209;-70
2022/03/21 08:11:05;;;;;;;24.53;14.07;;;10.50;92.90;;;;;;5050692;28;20447;-70
2022/03/21 08:13:31;;;;;;;19.37;15.47;;;10.60;92.60;;;;;;5032108;28;20999;-70
2022/03/21 08:15:57;;;;;;;18.00;15.03;;;10.70;92.80;;;;;;5040149;28;20513;-69
2022/03/21 08:18:23;;;;;;;18.33;14.60;;;10.80;92.90;;;;;;5069016;28;20452;-70
2022/03/21 08:20:48;;;;;;;19.70;14.80;;;10.90;92.80;;;;;;5064338;28;20682;-69
2022/03/21 08:23:14;;;;;;;21.50;15.30;;;11.00;92.10;;;;;;5049679;28;20210;-68
2022/03/21 08:25:48;;;;;;;17.93;14.43;;;11.10;92.10;;;;;;5049456;28;20198;-69
2022/03/21 08:28:14;;;;;;;18.17;15.00;;;11.10;91.10;;;;;;5031450;28;20463;-70
2022/03/21 08:30:41;;;;;;;18.83;14.70;;;11.10;90.50;;;;;;5032133;28;20448;-70
2022/03/21 08:33:10;;;;;;;16.10;14.30;;;11.10;90.10;;;;;;5049905;28;20467;-69
2022/03/21 08:35:38;;;;;;;15.07;13.40;;;11.20;90.30;;;;;;5049284;28;20688;-70
2022/03/21 08:38:09;;;;;;;17.97;14.90;;;11.30;90.80;;;;;;5050184;28;20433;-71
2022/03/21 08:40:36;;;;;;;19.37;15.30;;;11.40;91.00;;;;;;5053621;28;20467;-70
2022/03/21 08:43:03;;;;;;;17.17;15.30;;;11.40;91.00;;;;;;5069492;28;20427;-70
2022/03/21 08:45:28;;;;;;;18.50;16.03;;;11.60;90.40;;;;;;5069370;28;20539;-70
2022/03/21 08:47:54;;;;;;;22.73;15.27;;;11.70;91.00;;;;;;5071026;28;20765;-70
2022/03/21 08:50:20;;;;;;;17.73;14.80;;;11.70;90.10;;;;;;5071028;28;20192;-70
2022/03/21 08:52:46;;;;;;;18.83;15.73;;;11.70;89.20;;;;;;5070825;28;20184;-69
2022/03/21 08:55:12;;;;;;;18.90;15.67;;;11.80;89.30;;;;;;5070832;28;20420;-69
2022/03/21 08:57:38;;;;;;;19.30;14.33;;;11.80;89.90;;;;;;5070491;28;20205;-69
2022/03/21 09:00:06;;;;;;;19.23;15.90;;;11.90;90.30;;;;;;5071274;28;20404;-71
2022/03/21 09:02:33;;;;;;;20.67;14.77;;;12.00;90.50;;;;;;5070036;28;20495;-69
2022/03/21 09:04:59;;;;;;;17.47;15.60;;;12.10;90.60;;;;;;5070313;28;20480;-69
2022/03/21 09:07:25;;;;;;;19.17;13.80;;;12.30;90.70;;;;;;5070282;28;20411;-70
2022/03/21 09:09:50;;;;;;;20.57;15.13;;;12.40;90.40;;;;;;5070158;28;20174;-69
2022/03/21 09:12:16;;;;;;;19.63;15.47;;;12.60;90.50;;;;;;5069997;28;20530;-69
2022/03/21 09:14:41;;;;;;;16.00;14.07;;;12.60;90.50;;;;;;5052194;28;20193;-69
2022/03/21 09:17:07;;;;;;;20.00;14.10;;;12.70;90.50;;;;;;5072353;28;20203;-69
2022/03/21 09:19:33;;;;;;;18.33;14.50;;;12.80;90.30;;;;;;5073964;28;20166;-70
2022/03/21 09:21:59;;;;;;;20.23;15.40;;;13.00;90.30;;;;;;5073658;28;20176;-69
2022/03/21 09:24:25;;;;;;;17.70;14.80;;;13.10;90.00;;;;;;5073461;28;20162;-69
2022/03/21 09:26:51;;;;;;;18.00;14.73;;;13.20;89.50;;;;;;5073808;28;20900;-69
2022/03/21 09:29:17;;;;;;;15.57;13.73;;;13.30;89.30;;;;;;5074113;28;20452;-69
2022/03/21 09:31:43;;;;;;;18.30;14.80;;;13.20;89.90;;;;;;5073656;28;20197;-69
2022/03/21 09:34:11;;;;;;;19.10;14.90;;;13.30;90.00;;;;;;5074201;28;20497;-69
2022/03/21 09:36:37;;;;;;;19.20;13.87;;;13.50;90.00;;;;;;5073489;28;20559;-69
2022/03/21 09:39:04;;;;;;;19.80;16.13;;;13.60;89.80;;;;;;5073632;28;20494;-69
2022/03/21 09:41:30;;;;;;;16.60;14.17;;;13.70;89.60;;;;;;5073911;28;20795;-70
2022/03/21 09:44:00;;;;;;;18.03;14.47;;;13.80;88.80;;;;;;5073426;28;20407;-69
2022/03/21 09:46:26;;;;;;;19.37;14.60;;;13.90;88.40;;;;;;5055356;28;20963;-70
2022/03/21 09:48:54;;;;;;;20.40;15.13;;;14.10;88.60;;;;;;5073576;28;20488;-69
2022/03/21 09:51:22;;;;;;;17.33;14.20;;;14.20;88.50;;;;;;5073454;28;20411;-69
2022/03/21 09:53:48;;;;;;;18.20;15.00;;;14.30;88.40;;;;;;5073206;28;20435;-70
2022/03/21 09:56:14;;;;;;;19.43;15.40;;;14.40;87.70;;;;;;5073642;28;20499;-70
2022/03/21 09:58:40;;;;;;;17.90;14.50;;;14.50;87.20;;;;;;5073628;28;20443;-70
2022/03/21 10:01:06;;;;;;;18.67;16.07;;;14.60;86.40;;;;;;5073537;28;20423;-69
2022/03/21 10:03:33;;;;;;;17.43;14.73;;;14.60;86.90;;;;;;5073497;28;20215;-68
2022/03/21 10:06:00;;;;;;;17.63;14.63;;;14.70;87.50;;;;;;5073443;28;20232;-70
2022/03/21 10:08:27;;;;;;;14.77;13.10;;;14.80;87.50;;;;;;5073519;28;20419;-69
2022/03/21 10:11:01;;;;;;;20.07;15.50;;;14.90;87.30;;;;;;5073353;28;20424;-69
2022/03/21 10:13:35;;;;;;;16.70;14.40;;;15.00;87.30;;;;;;5073127;28;20434;-70
2022/03/21 10:16:18;;;;;;;16.73;14.07;;;15.10;86.80;;;;;;5064406;28;20529;-69
2022/03/21 10:18:52;;;;;;;16.73;13.57;;;15.20;87.10;;;;;;5052813;28;20488;-69
2022/03/21 10:21:19;;;;;;;16.30;14.33;;;15.30;86.50;;;;;;5052842;28;20412;-68
2022/03/21 10:23:56;;;;;;;16.40;14.40;;;15.40;85.60;;;;;;5052233;28;20429;-69
2022/03/21 10:26:32;;;;;;;15.07;13.37;;;15.40;85.10;;;;;;5052568;28;20448;-69
2022/03/21 10:29:00;;;;;;;18.53;14.20;;;15.50;86.10;;;;;;5052925;28;20413;-69
2022/03/21 10:31:41;;;;;;;16.23;14.00;;;15.40;85.80;;;;;;5053190;28;20401;-69
2022/03/21 10:34:09;;;;;;;16.87;15.13;;;15.30;85.90;;;;;;5053152;28;20416;-70
2022/03/21 10:36:35;;;;;;;17.33;13.70;;;15.30;86.60;;;;;;5052675;28;20456;-70
2022/03/21 10:39:11;;;;;;;17.80;13.50;;;15.40;86.60;;;;;;5052603;28;20405;-70
2022/03/21 10:41:39;;;;;;;15.23;13.03;;;15.50;85.90;;;;;;5051975;28;20170;-69
2022/03/21 10:44:08;;;;;;;15.40;13.53;;;15.60;85.90;;;;;;5052431;28;20500;-69
2022/03/21 10:46:35;;;;;;;15.70;13.90;;;15.60;86.20;;;;;;5034121;28;20455;-69
2022/03/21 10:49:07;;;;;;;17.83;13.03;;;15.70;85.60;;;;;;5049573;28;20562;-69
2022/03/21 10:51:54;;;;;;;15.40;13.33;;;15.70;85.40;;;;;;5051207;28;20411;-69
2022/03/21 10:54:50;;;;;;;18.67;13.63;;;15.70;85.40;;;;;;5052185;28;20507;-68
2022/03/21 10:57:25;;;;;;;13.70;12.20;;;15.80;85.50;;;;;;5051954;28;20460;-69
2022/03/21 10:59:51;;;;;;;15.57;12.43;;;15.90;85.40;;;;;;5034413;28;20499;-69
2022/03/21 11:02:17;;;;;;;19.87;13.57;;;15.90;86.00;;;;;;5037177;28;20497;-70
2022/03/21 11:04:44;;;;;;;13.63;12.23;;;15.90;85.60;;;;;;5053458;28;20194;-70
2022/03/21 11:07:12;;;;;;;14.70;12.57;;;15.90;86.10;;;;;;5051901;28;20466;-69
2022/03/21 11:09:39;;;;;;;18.37;13.10;;;16.00;85.90;;;;;;5051713;28;20405;-70
2022/03/21 11:12:09;;;;;;;15.47;12.67;;;16.00;86.00;;;;;;5051561;28;20428;-70
2022/03/21 11:14:37;;;;;;;15.60;13.30;;;16.00;85.90;;;;;;5033553;28;20972;-69
2022/03/21 11:17:05;;;;;;;13.27;11.97;;;16.00;85.90;;;;;;5068158;28;20440;-70
2022/03/21 11:19:30;;;;;;;16.10;12.63;;;16.10;85.60;;;;;;5071767;28;20408;-71
2022/03/21 11:21:56;;;;;;;12.90;11.60;;;16.20;85.70;;;;;;5071169;28;20415;-69
2022/03/21 11:24:22;;;;;;;13.43;12.00;;;16.30;85.60;;;;;;5071349;28;20415;-69
2022/03/21 11:27:12;;;;;;;14.33;11.20;;;16.20;86.30;;;;;;5071621;28;20177;-70
2022/03/21 11:30:00;;;;;;;14.00;10.97;;;16.30;87.40;;;;;;5071347;28;20170;-69
2022/03/21 11:32:54;;;;;;;13.17;11.37;;;16.40;87.00;;;;;;5070877;28;20447;-70
2022/03/21 11:35:32;;;;;;;12.57;11.37;;;16.40;86.80;;;;;;5071290;28;20439;-70
2022/03/21 11:38:30;;;;;;;13.13;11.47;;;16.40;86.50;;;;;;5071143;28;20897;-70
2022/03/21 11:41:11;;;;;;;14.07;11.50;;;16.10;86.20;;;;;;5071037;28;20400;-71
2022/03/21 11:43:38;;;;;;;16.10;11.50;;;16.20;87.00;;;;;;5071211;28;20762;-70
2022/03/21 11:46:22;;;;;;;15.70;11.33;;;16.30;89.60;;;;;;5070867;28;20530;-71
2022/03/21 11:48:48;;;;;;;12.33;10.33;;;16.40;90.30;;;;;;5071137;28;20404;-71
2022/03/21 11:51:16;;;;;;;11.40;10.30;;;16.60;89.80;;;;;;5070988;28;20396;-71
2022/03/21 11:53:50;;;;;;;14.00;10.60;;;16.60;90.20;;;;;;5070633;28;20170;-71
2022/03/21 11:56:17;;;;;;;13.90;11.37;;;16.70;89.80;;;;;;5040262;28;20461;-70
2022/03/21 11:58:46;;;;;;;12.97;11.67;;;16.80;88.70;;;;;;5031160;28;20445;-71
2022/03/21 12:01:18;;;;;;;14.47;11.53;;;16.70;86.50;;;;;;5070964;28;20459;-71
2022/03/21 12:03:43;;;;;;;13.83;11.83;;;16.60;85.90;;;;;;5070249;28;20456;-68
2022/03/21 12:06:32;;;;;;;13.20;10.70;;;16.70;86.70;;;;;;5070702;28;20533;-71
2022/03/21 12:09:11;;;;;;;12.17;10.40;;;16.70;87.10;;;;;;5052573;28;20259;-69
2022/03/21 12:11:48;;;;;;;12.40;10.63;;;16.60;86.60;;;;;;5070658;28;20470;-69
2022/03/21 12:14:29;;;;;;;12.23;11.03;;;16.50;86.80;;;;;;5069613;28;20451;-69
2022/03/21 12:17:00;;;;;;;11.30;10.20;;;16.50;86.90;;;;;;5054681;28;20536;-70
2022/03/21 12:19:48;;;;;;;11.63;9.33;;;16.50;86.20;;;;;;5049799;28;20531;-70
2022/03/21 12:22:36;;;;;;;10.47;9.40;;;16.50;87.20;;;;;;5061321;28;20986;-69
2022/03/21 12:25:38;;;;;;;11.00;8.53;;;16.60;88.60;;;;;;5051299;28;20972;-70
2022/03/21 12:31:27;;;;;;;8.73;7.60;;;16.60;88.90;;;;;;5054234;28;20404;-70
2022/03/21 12:33:53;;;;;;;11.70;9.80;;;16.60;89.00;;;;;;5063516;28;20768;-69
2022/03/21 12:36:32;;;;;;;10.30;8.80;;;16.60;88.60;;;;;;5042361;28;20456;-70
2022/03/21 12:38:58;;;;;;;10.97;9.67;;;16.60;88.90;;;;;;5054748;28;20926;-70
2022/03/21 12:41:32;;;;;;;10.43;9.20;;;16.60;89.30;;;;;;5068310;28;20442;-70
2022/03/21 12:43:57;;;;;;;10.80;9.33;;;16.60;89.00;;;;;;5060289;28;20207;-69
2022/03/21 12:46:24;;;;;;;14.30;9.20;;;16.60;88.90;;;;;;5060809;28;20541;-70
2022/03/21 12:49:08;;;;;;;11.07;9.07;;;16.70;89.40;;;;;;5049279;28;20181;-71
2022/03/21 12:51:36;;;;;;;12.17;8.90;;;16.50;88.40;;;;;;5043325;28;20416;-68
2022/03/21 12:54:05;;;;;;;10.80;8.80;;;16.50;88.90;;;;;;5053208;28;20467;-69
2022/03/21 12:56:31;;;;;;;11.97;9.63;;;16.60;89.10;;;;;;5069371;28;20994;-70
2022/03/21 12:59:05;;;;;;;9.43;8.53;;;16.50;89.60;;;;;;5059887;28;20412;-69
2022/03/21 13:01:32;;;;;;;11.43;10.23;;;16.50;89.20;;;;;;5042051;28;20457;-70